createdAt,value
2019-04-07T00:01:50.405Z,99.90
2019-04-07T00:04:18.636Z,99.90
2019-04-07T00:06:46.394Z,99.90
2019-04-07T00:09:14.006Z,99.90
2019-04-07T00:11:41.830Z,99.90
2019-04-07T00:14:09.336Z,99.90
2019-04-07T00:16:37.671Z,99.90
2019-04-07T00:19:05.463Z,99.90
2019-04-07T00:21:33.334Z,99.90
2019-04-07T00:24:02.286Z,99.90
2019-04-07T00:26:29.946Z,99.90
2019-04-07T00:28:57.795Z,99.90
2019-04-07T00:31:25.588Z,99.90
2019-04-07T00:33:53.517Z,99.90
2019-04-07T00:36:21.078Z,99.90
2019-04-07T00:38:48.970Z,99.90
2019-04-07T00:41:16.743Z,99.90
2019-04-07T00:43:44.650Z,99.90
2019-04-07T00:46:12.450Z,99.90
2019-04-07T00:48:40.761Z,99.90
2019-04-07T00:51:08.295Z,99.90
2019-04-07T00:53:36.603Z,99.90
2019-04-07T00:56:05.094Z,99.90
2019-04-07T00:58:33.399Z,99.90
2019-04-07T01:01:00.978Z,99.90
2019-04-07T01:03:29.117Z,99.90
2019-04-07T01:05:57.426Z,99.90
2019-04-07T01:08:25.957Z,99.90
2019-04-07T01:10:53.443Z,99.90
2019-04-07T01:13:21.002Z,99.90
2019-04-07T01:15:48.581Z,99.90
2019-04-07T01:18:16.520Z,99.90
2019-04-07T01:20:44.061Z,99.90
2019-04-07T01:23:11.588Z,99.90
2019-04-07T01:25:39.520Z,99.90
2019-04-07T01:28:07.079Z,99.90
2019-04-07T01:30:35.482Z,99.90
2019-04-07T01:33:03.087Z,99.90
2019-04-07T01:35:30.611Z,99.90
2019-04-07T01:37:58.339Z,99.90
2019-04-07T01:40:26.215Z,99.90
2019-04-07T01:43:22.738Z,99.90
2019-04-07T01:46:14.179Z,99.90
2019-04-07T01:49:13.486Z,99.90
2019-04-07T01:52:13.011Z,99.90
2019-04-07T01:55:15.541Z,99.90
2019-04-07T01:58:03.120Z,99.90
2019-04-07T02:00:58.836Z,99.90
2019-04-07T02:03:51.681Z,99.90
2019-04-07T02:06:37.935Z,99.90
2019-04-07T02:09:25.020Z,99.90
2019-04-07T02:12:05.167Z,99.90
2019-04-07T02:14:42.201Z,99.90
2019-04-07T02:17:17.935Z,99.90
2019-04-07T02:20:08.061Z,99.90
2019-04-07T02:22:55.383Z,99.90
2019-04-07T02:25:33.686Z,99.90
2019-04-07T02:28:12.739Z,99.90
2019-04-07T02:30:58.764Z,99.90
2019-04-07T02:33:45.963Z,99.90
2019-04-07T02:36:32.279Z,99.90
2019-04-07T02:39:29.062Z,99.90
2019-04-07T02:42:27.816Z,99.90
2019-04-07T02:45:21.714Z,99.90
2019-04-07T02:48:19.929Z,99.90
2019-04-07T02:50:54.957Z,99.90
2019-04-07T02:53:48.781Z,99.90
2019-04-07T02:56:35.981Z,99.90
2019-04-07T02:59:08.859Z,99.90
2019-04-07T03:01:56.029Z,99.90
2019-04-07T03:04:44.304Z,99.90
2019-04-07T03:07:44.427Z,99.90
2019-04-07T03:10:21.564Z,99.90
2019-04-07T03:13:18.087Z,99.90
2019-04-07T03:15:56.807Z,99.90
2019-04-07T03:18:39.617Z,99.90
2019-04-07T03:21:38.687Z,99.90
2019-04-07T03:24:37.932Z,99.90
2019-04-07T03:27:36.553Z,99.90
2019-04-07T03:30:27.085Z,99.90
2019-04-07T03:33:07.883Z,99.90
2019-04-07T03:35:43.763Z,99.90
2019-04-07T03:38:36.688Z,99.90
2019-04-07T03:41:19.658Z,99.90
2019-04-07T03:43:55.276Z,99.90
2019-04-07T03:46:41.250Z,99.90
2019-04-07T03:49:29.539Z,99.90
2019-04-07T03:52:17.063Z,99.90
2019-04-07T03:55:03.141Z,99.90
2019-04-07T03:57:53.505Z,99.90
2019-04-07T04:01:25.711Z,99.90
2019-04-07T04:03:59.550Z,99.90
2019-04-07T04:06:49.713Z,99.90
2019-04-07T04:09:45.905Z,99.90
2019-04-07T04:12:34.096Z,99.90
2019-04-07T04:15:20.313Z,99.90
2019-04-07T04:17:48.170Z,99.90
2019-04-07T04:20:16.133Z,99.90
2019-04-07T04:22:44.347Z,99.90
2019-04-07T04:25:12.688Z,99.90
2019-04-07T04:27:40.242Z,99.90
2019-04-07T04:30:10.512Z,99.90
2019-04-07T04:32:39.499Z,99.90
2019-04-07T04:35:07.306Z,99.90
2019-04-07T04:37:42.636Z,99.90
2019-04-07T04:40:05.094Z,99.90
2019-04-07T04:42:33.916Z,99.90
2019-04-07T04:45:02.394Z,99.90
2019-04-07T04:47:30.916Z,99.90
2019-04-07T04:49:58.508Z,99.90
2019-04-07T04:52:26.030Z,99.90
2019-04-07T04:54:54.831Z,99.90
2019-04-07T04:57:23.149Z,99.90
2019-04-07T04:59:50.734Z,99.90
2019-04-07T05:02:18.951Z,99.90
2019-04-07T05:04:47.119Z,99.90
2019-04-07T05:07:14.748Z,99.90
2019-04-07T05:09:48.987Z,99.90
2019-04-07T05:12:11.955Z,99.90
2019-04-07T05:14:41.203Z,99.90
2019-04-07T05:17:09.978Z,99.90
2019-04-07T05:19:37.816Z,99.90
2019-04-07T05:22:06.020Z,99.90
2019-04-07T05:24:35.063Z,99.90
2019-04-07T05:27:03.153Z,99.90
2019-04-07T05:29:31.186Z,99.90
2019-04-07T05:31:59.135Z,99.90
2019-04-07T05:34:27.003Z,99.90
2019-04-07T05:36:54.516Z,99.90
2019-04-07T05:39:21.994Z,99.90
2019-04-07T05:41:49.556Z,99.90
2019-04-07T05:44:17.680Z,99.90
2019-04-07T05:46:45.397Z,99.90
2019-04-07T05:49:15.943Z,99.90
2019-04-07T05:51:43.391Z,99.90
2019-04-07T05:54:12.305Z,99.90
2019-04-07T05:56:40.368Z,99.90
2019-04-07T05:59:09.914Z,99.90
2019-04-07T06:01:37.231Z,99.90
2019-04-07T06:04:05.634Z,99.90
2019-04-07T06:06:33.188Z,99.90
2019-04-07T06:09:00.759Z,99.90
2019-04-07T06:11:31.270Z,99.90
2019-04-07T06:13:58.030Z,99.90
2019-04-07T06:16:25.660Z,99.90
2019-04-07T06:18:53.170Z,99.90
2019-04-07T06:21:21.324Z,99.90
2019-04-07T06:23:49.651Z,99.90
2019-04-07T06:26:17.601Z,99.90
2019-04-07T06:28:48.999Z,99.90
2019-04-07T06:31:14.929Z,99.90
2019-04-07T06:33:42.723Z,99.90
2019-04-07T06:36:10.563Z,99.90
2019-04-07T06:38:43.190Z,99.90
2019-04-07T06:41:08.214Z,99.90
2019-04-07T06:43:38.143Z,99.90
2019-04-07T06:46:30.720Z,99.90
2019-04-07T06:49:19.702Z,99.90
2019-04-07T06:52:07.353Z,99.90
2019-04-07T06:54:56.203Z,99.90
2019-04-07T06:57:58.292Z,99.90
2019-04-07T07:00:42.378Z,99.90
2019-04-07T07:03:20.331Z,99.90
2019-04-07T07:06:05.811Z,99.90
2019-04-07T07:08:45.071Z,99.90
2019-04-07T07:11:40.691Z,99.90
2019-04-07T07:14:35.502Z,99.90
2019-04-07T07:17:26.843Z,99.90
2019-04-07T07:20:07.025Z,99.90
2019-04-07T07:22:47.933Z,99.90
2019-04-07T07:25:16.955Z,99.90
2019-04-07T07:27:44.530Z,99.90
2019-04-07T07:30:12.163Z,99.90
2019-04-07T07:32:39.890Z,99.90
2019-04-07T07:35:08.059Z,99.90
2019-04-07T07:37:36.443Z,99.90
2019-04-07T07:40:08.475Z,99.90
2019-04-07T07:42:35.543Z,99.90
2019-04-07T07:45:03.691Z,99.90
2019-04-07T07:47:33.939Z,99.90
2019-04-07T07:50:04.876Z,99.90
2019-04-07T07:52:31.839Z,99.90
2019-04-07T07:55:01.552Z,99.90
2019-04-07T07:57:29.355Z,99.90
2019-04-07T07:59:57.370Z,99.90
2019-04-07T08:02:25.217Z,99.90
2019-04-07T08:04:56.514Z,99.90
2019-04-07T08:07:22.047Z,99.80
2019-04-07T08:09:49.619Z,99.40
2019-04-07T08:12:18.812Z,99.20
2019-04-07T08:14:52.193Z,99.10
2019-04-07T08:17:18.372Z,98.80
2019-04-07T08:19:46.652Z,98.70
2019-04-07T08:22:26.541Z,98.80
2019-04-07T08:24:43.873Z,98.20
2019-04-07T08:27:11.492Z,98.40
2019-04-07T08:29:39.798Z,97.90
2019-04-07T08:32:07.755Z,97.70
2019-04-07T08:34:36.093Z,97.00
2019-04-07T08:37:03.800Z,96.90
2019-04-07T08:39:34.848Z,97.00
2019-04-07T08:42:01.327Z,96.90
2019-04-07T08:44:30.507Z,96.60
2019-04-07T08:46:59.012Z,96.70
2019-04-07T08:49:27.619Z,96.10
2019-04-07T08:51:56.032Z,95.30
2019-04-07T08:54:23.882Z,95.20
2019-04-07T08:56:52.052Z,95.60
2019-04-07T08:59:19.673Z,95.90
2019-04-07T09:01:47.740Z,94.80
2019-04-07T09:04:17.795Z,95.40
2019-04-07T09:06:47.455Z,94.80
2019-04-07T09:09:15.694Z,95.10
2019-04-07T09:11:43.666Z,94.20
2019-04-07T09:14:11.263Z,94.00
2019-04-07T09:16:58.234Z,94.10
2019-04-07T09:19:49.532Z,93.60
2019-04-07T09:22:36.741Z,93.20
2019-04-07T09:25:41.087Z,93.70
2019-04-07T09:28:28.525Z,93.00
2019-04-07T09:31:04.564Z,93.50
2019-04-07T09:33:48.975Z,93.20
2019-04-07T09:36:39.227Z,93.70
2019-04-07T09:39:54.066Z,93.30
2019-04-07T09:42:25.715Z,93.00
2019-04-07T09:45:02.198Z,92.20
2019-04-07T09:47:58.827Z,91.90
2019-04-07T09:50:32.763Z,90.80
2019-04-07T09:53:38.201Z,91.50
2019-04-07T09:56:18.529Z,91.20
2019-04-07T09:59:09.946Z,90.90
2019-04-07T10:01:59.562Z,91.30
2019-04-07T10:04:42.258Z,91.50
2019-04-07T10:07:34.828Z,91.00
2019-04-07T10:10:17.058Z,89.40
2019-04-07T10:13:13.600Z,90.50
2019-04-07T10:15:55.039Z,90.40
2019-04-07T10:18:45.006Z,90.40
2019-04-07T10:21:20.674Z,88.00
2019-04-07T10:24:07.431Z,88.60
2019-04-07T10:26:53.581Z,90.20
2019-04-07T10:29:46.590Z,86.70
2019-04-07T10:32:27.071Z,87.60
2019-04-07T10:35:15.686Z,83.20
2019-04-07T10:38:21.402Z,86.00
2019-04-07T10:40:59.367Z,84.70
2019-04-07T10:44:01.795Z,85.50
2019-04-07T10:46:47.885Z,86.60
2019-04-07T10:49:44.313Z,86.00
2019-04-07T10:52:21.416Z,85.00
2019-04-07T10:54:55.146Z,86.90
2019-04-07T10:57:29.877Z,85.80
2019-04-07T11:00:26.189Z,85.80
2019-04-07T11:03:12.070Z,84.90
2019-04-07T11:05:59.342Z,85.20
2019-04-07T11:08:49.223Z,83.60
2019-04-07T11:11:49.132Z,83.50
2019-04-07T11:14:34.109Z,85.50
2019-04-07T11:17:25.300Z,85.10
2019-04-07T11:20:11.598Z,86.30
2019-04-07T11:22:57.540Z,82.40
2019-04-07T11:25:43.916Z,84.40
2019-04-07T11:28:31.821Z,79.40
2019-04-07T11:31:19.621Z,78.60
2019-04-07T11:34:25.368Z,77.90
2019-04-07T11:37:24.699Z,78.00
2019-04-07T11:40:05.008Z,78.30
2019-04-07T11:42:44.848Z,78.30
2019-04-07T11:45:35.132Z,72.30
2019-04-07T11:48:15.574Z,71.00
2019-04-07T11:51:06.271Z,70.80
2019-04-07T11:53:48.108Z,71.50
2019-04-07T11:56:53.395Z,70.30
2019-04-07T11:59:37.878Z,70.50
2019-04-07T12:02:21.739Z,71.80
2019-04-07T12:05:08.225Z,65.30
2019-04-07T12:07:56.842Z,69.00
2019-04-07T12:11:01.708Z,69.10
2019-04-07T12:13:50.949Z,73.70
2019-04-07T12:16:32.088Z,70.20
2019-04-07T12:19:12.592Z,67.70
2019-04-07T12:22:13.862Z,67.00
2019-04-07T12:25:03.350Z,62.70
2019-04-07T12:27:49.149Z,64.60
2019-04-07T12:30:36.926Z,64.70
2019-04-07T12:33:16.858Z,65.50
2019-04-07T12:36:07.215Z,65.70
2019-04-07T12:38:57.443Z,65.80
2019-04-07T12:41:44.756Z,61.10
2019-04-07T12:44:50.790Z,62.40
2019-04-07T12:47:27.622Z,59.50
2019-04-07T12:50:21.884Z,60.50
2019-04-07T12:53:12.297Z,60.70
2019-04-07T12:56:11.421Z,62.50
2019-04-07T12:59:04.459Z,61.80
2019-04-07T13:01:48.455Z,62.10
2019-04-07T13:04:21.983Z,62.70
2019-04-07T13:07:01.302Z,58.30
2019-04-07T13:09:54.769Z,56.80
2019-04-07T13:12:38.737Z,58.40
2019-04-07T13:15:38.919Z,59.10
2019-04-07T13:18:37.231Z,58.70
2019-04-07T13:21:26.756Z,58.40
2019-04-07T13:24:29.601Z,58.00
2019-04-07T13:27:06.235Z,56.10
2019-04-07T13:29:52.004Z,56.10
2019-04-07T13:32:37.063Z,56.40
2019-04-07T13:35:20.145Z,56.80
2019-04-07T13:38:13.352Z,57.20
2019-04-07T13:41:04.110Z,56.00
2019-04-07T13:43:51.698Z,55.40
2019-04-07T13:46:35.381Z,54.70
2019-04-07T13:49:08.083Z,54.80
2019-04-07T13:51:47.673Z,53.30
2019-04-07T13:54:42.434Z,53.00
2019-04-07T13:57:25.614Z,56.50
2019-04-07T14:00:12.848Z,55.20
2019-04-07T14:03:01.331Z,52.50
2019-04-07T14:05:47.907Z,51.90
2019-04-07T14:08:41.593Z,50.80
2019-04-07T14:11:29.631Z,49.40
2019-04-07T14:14:15.737Z,52.20
2019-04-07T14:16:51.685Z,52.20
2019-04-07T14:19:31.153Z,53.10
2019-04-07T14:22:11.016Z,51.90
2019-04-07T14:24:43.686Z,53.20
2019-04-07T14:27:25.191Z,51.30
2019-04-07T14:30:08.888Z,53.10
2019-04-07T14:33:03.367Z,50.70
2019-04-07T14:35:48.935Z,51.90
2019-04-07T14:38:31.614Z,52.50
2019-04-07T14:41:24.724Z,52.30
2019-04-07T14:44:10.676Z,51.10
2019-04-07T14:47:12.881Z,49.80
2019-04-07T14:50:13.073Z,50.60
2019-04-07T14:52:49.321Z,51.10
2019-04-07T14:55:32.897Z,49.70
2019-04-07T14:58:09.820Z,49.60
2019-04-07T15:01:01.773Z,50.70
2019-04-07T15:03:26.678Z,50.20
2019-04-07T15:05:56.403Z,51.70
2019-04-07T15:08:44.368Z,50.30
2019-04-07T15:11:37.873Z,48.70
2019-04-07T15:14:06.239Z,49.80
2019-04-07T15:16:34.057Z,48.00
2019-04-07T15:19:03.179Z,48.70
2019-04-07T15:21:31.892Z,48.50
2019-04-07T15:24:04.682Z,47.00
2019-04-07T15:26:29.661Z,48.70
2019-04-07T15:28:59.048Z,49.80
2019-04-07T15:31:27.294Z,48.60
2019-04-07T15:33:56.336Z,48.00
2019-04-07T15:36:25.364Z,48.20
2019-04-07T15:39:04.195Z,48.20
2019-04-07T15:41:32.713Z,48.80
2019-04-07T15:44:01.548Z,49.00
2019-04-07T15:46:30.856Z,49.20
2019-04-07T15:48:59.424Z,50.30
2019-04-07T15:51:27.079Z,51.00
2019-04-07T15:53:55.380Z,51.40
2019-04-07T15:56:23.957Z,52.10
2019-04-07T15:58:52.821Z,51.70
2019-04-07T16:01:21.633Z,52.80
2019-04-07T16:04:02.790Z,53.30
2019-04-07T16:06:31.138Z,53.10
2019-04-07T16:09:01.178Z,52.90
2019-04-07T16:11:30.524Z,53.60
2019-04-07T16:13:59.557Z,53.20
2019-04-07T16:16:29.470Z,53.10
2019-04-07T16:18:57.435Z,53.80
2019-04-07T16:21:27.794Z,53.80
2019-04-07T16:23:55.921Z,55.10
2019-04-07T16:26:24.149Z,56.30
2019-04-07T16:28:52.149Z,55.70
2019-04-07T16:31:23.114Z,54.60
2019-04-07T16:33:49.459Z,54.70
2019-04-07T16:36:19.583Z,54.00
2019-04-07T16:38:47.949Z,53.00
2019-04-07T16:41:15.551Z,53.30
2019-04-07T16:43:43.407Z,53.20
2019-04-07T16:46:13.656Z,52.00
2019-04-07T16:48:40.384Z,51.70
2019-04-07T16:51:07.937Z,51.20
2019-04-07T16:53:37.951Z,50.10
2019-04-07T16:56:05.575Z,48.60
2019-04-07T16:58:36.886Z,49.90
2019-04-07T17:01:02.965Z,48.10
2019-04-07T17:03:31.038Z,47.20
2019-04-07T17:06:01.193Z,47.90
2019-04-07T17:08:29.730Z,47.50
2019-04-07T17:10:57.657Z,49.20
2019-04-07T17:13:35.624Z,52.00
2019-04-07T17:15:55.329Z,50.80
2019-04-07T17:18:43.156Z,50.60
2019-04-07T17:21:15.055Z,54.50
2019-04-07T17:23:42.975Z,57.70
2019-04-07T17:26:11.735Z,61.40
2019-04-07T17:28:42.077Z,64.40
2019-04-07T17:31:09.199Z,66.20
2019-04-07T17:33:37.906Z,68.80
2019-04-07T17:36:05.942Z,69.20
2019-04-07T17:38:39.116Z,71.90
2019-04-07T17:41:08.289Z,73.80
2019-04-07T17:43:58.280Z,74.80
2019-04-07T17:46:58.683Z,75.80
2019-04-07T17:49:35.934Z,77.60
2019-04-07T17:52:20.761Z,80.90
2019-04-07T17:55:06.913Z,81.20
2019-04-07T17:57:54.297Z,82.60
2019-04-07T18:00:34.630Z,82.70
2019-04-07T18:03:14.143Z,83.30
2019-04-07T18:06:00.547Z,83.30
2019-04-07T18:08:48.518Z,85.50
2019-04-07T18:11:35.019Z,88.10
2019-04-07T18:14:18.074Z,89.40
2019-04-07T18:17:20.406Z,89.80
2019-04-07T18:20:09.014Z,90.40
2019-04-07T18:22:45.349Z,91.00
2019-04-07T18:25:38.463Z,91.00
2019-04-07T18:28:30.433Z,90.80
2019-04-07T18:31:15.774Z,90.60
2019-04-07T18:34:02.481Z,90.50
2019-04-07T18:37:06.100Z,90.60
2019-04-07T18:40:00.424Z,91.00
2019-04-07T18:42:47.876Z,91.40
2019-04-07T18:45:21.740Z,92.20
2019-04-07T18:47:58.476Z,92.60
2019-04-07T18:50:41.267Z,92.80
2019-04-07T18:53:27.685Z,92.90
2019-04-07T18:56:09.765Z,93.00
2019-04-07T18:59:07.554Z,93.90
2019-04-07T19:01:53.394Z,94.90
2019-04-07T19:04:31.522Z,95.50
2019-04-07T19:07:25.226Z,96.00
2019-04-07T19:10:21.081Z,96.00
2019-04-07T19:13:12.121Z,95.90
2019-04-07T19:15:47.172Z,96.20
2019-04-07T19:18:33.160Z,96.20
2019-04-07T19:21:18.555Z,96.20
2019-04-07T19:24:10.254Z,96.20
2019-04-07T19:27:11.848Z,96.20
2019-04-07T19:30:00.534Z,96.30
2019-04-07T19:32:37.083Z,96.50
2019-04-07T19:35:38.764Z,96.50
2019-04-07T19:38:19.587Z,96.40
2019-04-07T19:40:53.133Z,96.10
2019-04-07T19:43:58.720Z,96.00
2019-04-07T19:47:01.610Z,96.00
2019-04-07T19:49:54.326Z,96.00
2019-04-07T19:52:44.608Z,96.30
2019-04-07T19:55:34.663Z,96.20
2019-04-07T19:58:22.419Z,96.40
2019-04-07T20:01:01.214Z,96.40
2019-04-07T20:03:47.245Z,96.20
2019-04-07T20:06:46.860Z,96.20
2019-04-07T20:09:23.578Z,96.20
2019-04-07T20:12:11.041Z,96.20
2019-04-07T20:15:01.354Z,96.30
2019-04-07T20:17:41.120Z,96.40
2019-04-07T20:20:23.716Z,96.60
2019-04-07T20:23:00.071Z,96.70
2019-04-07T20:25:48.084Z,96.70
2019-04-07T20:28:21.094Z,96.70
2019-04-07T20:30:59.606Z,96.80
2019-04-07T20:33:50.081Z,96.90
2019-04-07T20:36:44.368Z,97.00
2019-04-07T20:39:27.405Z,97.10
2019-04-07T20:42:19.306Z,97.20
2019-04-07T20:45:03.584Z,97.20
2019-04-07T20:47:59.194Z,97.20
2019-04-07T20:50:43.660Z,97.20
2019-04-07T20:53:33.973Z,97.20
2019-04-07T20:56:21.096Z,97.20
2019-04-07T20:59:08.490Z,97.20
2019-04-07T21:02:02.473Z,97.20
2019-04-07T21:04:40.249Z,97.20
2019-04-07T21:07:28.976Z,97.20
2019-04-07T21:10:18.823Z,97.10
2019-04-07T21:13:06.434Z,97.30
2019-04-07T21:16:03.579Z,97.50
2019-04-07T21:18:59.103Z,97.90
2019-04-07T21:21:55.859Z,97.50
2019-04-07T21:24:43.451Z,97.60
2019-04-07T21:27:39.405Z,97.60
2019-04-07T21:30:29.532Z,97.60
2019-04-07T21:33:15.280Z,97.80
2019-04-07T21:35:56.707Z,97.80
2019-04-07T21:39:00.355Z,97.80
2019-04-07T21:41:46.402Z,97.80
2019-04-07T21:44:31.663Z,97.80
2019-04-07T21:47:20.213Z,97.80
2019-04-07T21:50:02.862Z,97.80
2019-04-07T21:52:45.557Z,97.80
2019-04-07T21:55:51.600Z,98.00
2019-04-07T21:58:42.021Z,98.10
2019-04-07T22:01:14.988Z,98.20
2019-04-07T22:03:54.633Z,98.20
2019-04-07T22:06:57.991Z,98.20
2019-04-07T22:09:32.583Z,98.20
2019-04-07T22:12:00.899Z,98.40
2019-04-07T22:14:28.507Z,98.40
2019-04-07T22:16:56.871Z,98.50
2019-04-07T22:19:24.612Z,98.50
2019-04-07T22:21:54.997Z,98.50
2019-04-07T22:24:21.957Z,98.60
2019-04-07T22:26:50.291Z,98.70
2019-04-07T22:29:18.311Z,98.70
2019-04-07T22:31:49.491Z,98.70
2019-04-07T22:34:17.361Z,98.60
2019-04-07T22:36:47.520Z,98.60
2019-04-07T22:39:14.380Z,98.60
2019-04-07T22:41:43.031Z,98.70
2019-04-07T22:44:11.460Z,98.80
2019-04-07T22:46:39.589Z,99.00
2019-04-07T22:49:07.375Z,98.90
2019-04-07T22:51:35.030Z,99.00
2019-04-07T22:54:03.019Z,99.10
2019-04-07T22:56:31.064Z,99.10
2019-04-07T22:58:58.898Z,99.20
2019-04-07T23:01:27.196Z,99.20
2019-04-07T23:03:56.045Z,99.40
2019-04-07T23:06:24.331Z,99.40
2019-04-07T23:08:52.804Z,99.40
2019-04-07T23:11:20.651Z,99.50
2019-04-07T23:13:49.252Z,99.50
2019-04-07T23:16:17.979Z,99.50
2019-04-07T23:18:46.491Z,99.60
2019-04-07T23:21:14.906Z,99.70
2019-04-07T23:23:42.956Z,99.80
2019-04-07T23:26:10.985Z,99.90
2019-04-07T23:28:39.989Z,99.90
2019-04-07T23:31:07.827Z,99.90
2019-04-07T23:33:36.116Z,99.90
2019-04-07T23:36:03.901Z,99.90
2019-04-07T23:38:33.758Z,99.90
2019-04-07T23:41:01.277Z,99.90
2019-04-07T23:43:29.195Z,99.90
2019-04-07T23:45:56.795Z,99.90
2019-04-07T23:48:24.393Z,99.90
2019-04-07T23:50:52.057Z,99.90
2019-04-07T23:53:56.291Z,99.90
2019-04-07T23:56:25.195Z,99.90
2019-04-07T23:58:52.820Z,99.90
